Time;durP1;ratioP1;P1;durP2;ratioP2;P2;SDS_P1;SDS_P2;PMS_P1;PMS_P2;Temp;Humidity;BMP_temperature;BMP_pressure;BME280_temperature;BME280_humidity;BME280_pressure;Samples;Min_cycle;Max_cycle;Signal;HPM_P1;HPM_P2
2022/05/15 00:01:19;;;;;;;1.50;1.40;;;;;;;14.17;53.83;99187.41;5081838;28;42431;-83
2022/05/15 00:03:47;;;;;;;1.53;1.10;;;;;;;14.25;53.93;99214.34;5033750;28;39440;-78
2022/05/15 00:06:15;;;;;;;2.93;1.77;;;;;;;14.23;54.47;99210.94;5053077;28;41729;-80
2022/05/15 00:08:43;;;;;;;2.60;1.60;;;;;;;14.20;54.00;99219.16;5053318;28;43535;-77
2022/05/15 00:11:17;;;;;;;1.90;1.30;;;;;;;14.17;54.30;99214.91;5084503;28;40972;-79
2022/05/15 00:13:46;;;;;;;2.67;1.53;;;;;;;14.06;54.44;99200.66;5034554;28;38481;-81
2022/05/15 00:16:13;;;;;;;1.50;1.40;;;;;;;14.12;54.54;99214.38;5067821;28;40841;-78
2022/05/15 00:18:43;;;;;;;2.20;2.00;;;;;;;14.10;55.00;99208.28;5067145;28;42854;-81
2022/05/15 00:21:11;;;;;;;1.30;1.13;;;;;;;14.09;54.63;99219.09;5059847;28;43269;-84
2022/05/15 00:23:39;;;;;;;1.33;1.23;;;;;;;14.07;54.59;99219.19;5067702;28;39743;-82
2022/05/15 00:26:07;;;;;;;1.43;1.30;;;;;;;13.76;54.54;99169.91;5050784;28;41026;-86
2022/05/15 00:28:36;;;;;;;2.00;1.60;;;;;;;14.02;54.59;99218.66;5050850;28;42693;-76
2022/05/15 00:31:04;;;;;;;1.37;1.27;;;;;;;14.00;54.44;99221.41;5059013;28;42463;-83
2022/05/15 00:33:32;;;;;;;2.10;1.30;;;;;;;13.97;54.27;99220.81;5074176;28;38855;-83
2022/05/15 00:36:00;;;;;;;1.53;1.30;;;;;;;13.91;54.45;99207.91;5090496;28;42330;-82
2022/05/15 00:38:27;;;;;;;2.17;1.30;;;;;;;13.91;54.42;99216.75;5074088;28;41441;-83
2022/05/15 00:40:55;;;;;;;3.00;1.40;;;;;;;13.76;54.94;99191.19;5091289;28;43012;-83
2022/05/15 00:43:39;;;;;;;1.67;1.57;;;;;;;13.80;54.65;99199.81;5091998;28;39859;-76
2022/05/15 00:46:10;;;;;;;2.43;1.47;;;;;;;13.86;55.09;99210.88;5090878;28;42220;-84
2022/05/15 00:48:38;;;;;;;1.60;1.43;;;;;;;13.83;55.87;99204.94;5073392;28;41503;-79
2022/05/15 00:51:12;;;;;;;1.90;1.53;;;;;;;13.83;55.34;99204.94;5074046;28;41203;-80
2022/05/15 00:53:40;;;;;;;1.57;1.47;;;;;;;13.68;55.29;99193.56;5123887;27;39805;-79
2022/05/15 00:56:08;;;;;;;3.83;1.80;;;;;;;13.76;55.54;99207.16;5073235;28;42335;-79
2022/05/15 00:58:41;;;;;;;1.87;1.67;;;;;;;13.73;55.35;99207.38;5090030;28;42829;-81
2022/05/15 01:01:09;;;;;;;3.07;2.10;;;;;;;13.70;55.30;99206.75;5090578;28;42296;-83
2022/05/15 01:03:37;;;;;;;1.70;1.53;;;;;;;13.61;55.33;99197.59;5073538;28;38898;-77
2022/05/15 01:06:05;;;;;;;2.43;1.60;;;;;;;13.56;55.14;99191.75;5080224;28;42784;-76
2022/05/15 01:08:33;;;;;;;1.67;1.50;;;;;;;13.58;55.27;99204.00;5053237;28;41471;-76
2022/05/15 01:11:10;;;;;;;5.20;1.60;;;;;;;13.54;55.32;99201.63;5052068;28;42244;-83
2022/05/15 01:13:42;;;;;;;2.20;1.50;;;;;;;13.50;55.44;99200.13;5082227;28;40071;-77
2022/05/15 01:16:12;;;;;;;2.27;1.90;;;;;;;13.46;55.48;99199.53;5033354;28;41859;-78
2022/05/15 01:18:41;;;;;;;1.90;1.63;;;;;;;13.43;55.34;99202.38;5052420;28;42883;-81
2022/05/15 01:21:24;;;;;;;2.43;1.97;;;;;;;13.39;57.34;99181.41;5051025;28;42309;-81
2022/05/15 01:23:53;;;;;;;2.93;1.97;;;;;;;13.39;57.79;99192.03;5050226;28;39060;-78
2022/05/15 01:26:22;;;;;;;2.87;2.17;;;;;;;13.37;58.05;99186.81;5050261;28;41836;-80
2022/05/15 01:28:50;;;;;;;2.33;1.80;;;;;;;13.36;57.47;99186.94;5083698;28;42647;-81
2022/05/15 01:31:19;;;;;;;3.47;2.30;;;;;;;13.32;57.13;99186.31;5079124;28;43263;-85
2022/05/15 01:33:48;;;;;;;2.20;1.77;;;;;;;13.27;56.78;99183.94;5090485;28;39653;-78
2022/05/15 01:36:19;;;;;;;4.37;1.60;;;;;;;13.23;56.69;99190.41;5065183;28;40566;-75
2022/05/15 01:38:48;;;;;;;3.33;1.90;;;;;;;13.20;56.87;99190.66;5070230;28;43474;-81
2022/05/15 01:41:16;;;;;;;1.70;1.50;;;;;;;13.18;56.74;99187.25;5053050;28;41035;-86
2022/05/15 01:43:46;;;;;;;3.37;2.37;;;;;;;13.14;56.98;99188.41;5086723;28;40018;-81
2022/05/15 01:46:14;;;;;;;1.90;1.70;;;;;;;13.13;56.84;99196.44;5070078;28;41760;-86
2022/05/15 01:48:42;;;;;;;1.33;1.23;;;;;;;13.09;57.67;99185.19;5071572;28;42676;-77
2022/05/15 01:51:11;;;;;;;2.57;1.73;;;;;;;13.07;57.33;99191.56;5073469;28;42266;-77
2022/05/15 01:53:39;;;;;;;2.13;1.57;;;;;;;13.03;57.26;99190.91;5055981;28;40779;-78
2022/05/15 01:56:08;;;;;;;1.90;1.40;;;;;;;12.99;57.19;99189.38;5073945;28;41663;-78
2022/05/15 01:58:36;;;;;;;1.37;1.27;;;;;;;12.98;57.09;99192.19;5056059;28;43279;-78
2022/05/15 02:01:05;;;;;;;1.63;1.53;;;;;;;12.88;57.05;99186.59;5073290;28;42966;-78
2022/05/15 02:03:32;;;;;;;1.83;1.20;;;;;;;12.92;57.10;99188.09;5073112;28;39792;-79
2022/05/15 02:06:00;;;;;;;2.00;1.53;;;;;;;12.88;57.10;99186.59;5055972;28;42759;-78
2022/05/15 02:08:31;;;;;;;1.60;1.40;;;;;;;12.84;56.84;99195.75;5073037;28;41688;-79
2022/05/15 02:10:59;;;;;;;2.13;1.50;;;;;;;12.81;56.88;99193.28;5055697;28;40954;-81
2022/05/15 02:13:29;;;;;;;1.60;1.50;;;;;;;12.78;56.77;99197.00;5055831;28;38899;-80
2022/05/15 02:15:57;;;;;;;2.43;1.70;;;;;;;12.74;57.24;99205.25;5072862;28;41604;-76
2022/05/15 02:18:25;;;;;;;1.60;1.50;;;;;;;12.62;57.21;99196.28;5089884;28;41725;-78
2022/05/15 02:20:54;;;;;;;1.70;1.60;;;;;;;12.63;57.21;99205.13;5056107;28;41036;-77
2022/05/15 02:23:22;;;;;;;1.87;1.50;;;;;;;12.57;57.51;99204.59;5055949;28;38836;-79
2022/05/15 02:25:50;;;;;;;2.30;1.73;;;;;;;12.54;57.43;99203.91;5055739;28;41855;-85
2022/05/15 02:28:18;;;;;;;2.60;1.80;;;;;;;12.49;57.69;99201.53;5072511;28;42716;-83
2022/05/15 02:30:48;;;;;;;2.10;1.50;;;;;;;12.47;57.88;99202.63;5065908;28;42687;-83
2022/05/15 02:33:17;;;;;;;2.27;1.80;;;;;;;12.43;58.12;99201.97;5110363;28;39359;-76
2022/05/15 02:35:44;;;;;;;1.40;1.30;;;;;;;12.38;57.73;99198.72;5075868;28;42223;-78
2022/05/15 02:38:12;;;;;;;2.60;1.60;;;;;;;12.22;58.08;99177.66;5075729;28;45232;-79
2022/05/15 02:40:41;;;;;;;1.50;1.40;;;;;;;12.33;57.93;99210.63;5075826;28;42705;-77
2022/05/15 02:43:09;;;;;;;2.03;1.70;;;;;;;12.29;57.91;99203.78;5092606;28;40802;-83
2022/05/15 02:45:36;;;;;;;2.37;1.53;;;;;;;12.28;58.64;99202.09;5126788;27;41649;-81
2022/05/15 02:51:03;;;;;;;2.07;1.57;;;;;;;12.26;59.06;99199.53;5108715;28;43521;-80
2022/05/15 02:51:04;;;;;;;2.10;1.60;;;;;;;12.24;58.88;99202.28;5075612;28;42245;-78
2022/05/15 02:53:34;;;;;;;2.00;1.50;;;;;;;12.24;58.89;99202.28;5109752;28;40067;-81
2022/05/15 02:56:04;;;;;;;2.23;1.70;;;;;;;12.25;59.08;99197.81;5092538;28;41732;-79
2022/05/15 02:58:32;;;;;;;2.03;1.70;;;;;;;12.23;59.35;99197.09;5092330;28;42649;-82
2022/05/15 03:01:00;;;;;;;1.67;1.57;;;;;;;12.20;59.05;99199.94;5092259;28;41072;-78
2022/05/15 03:03:29;;;;;;;1.90;1.70;;;;;;;12.23;59.09;99200.59;5109132;28;39723;-82
2022/05/15 03:05:57;;;;;;;3.03;1.80;;;;;;;12.23;58.90;99199.75;5109497;28;40552;-82
2022/05/15 03:08:25;;;;;;;1.50;1.40;;;;;;;12.20;59.07;99202.59;5092543;28;43707;-85
2022/05/15 03:10:53;;;;;;;1.43;1.33;;;;;;;12.18;59.36;99204.47;5092508;28;42372;-78
2022/05/15 03:13:21;;;;;;;2.50;1.60;;;;;;;12.19;59.24;99203.53;5093445;28;40939;-79
2022/05/15 03:15:49;;;;;;;1.40;1.30;;;;;;;12.11;59.50;99189.91;5075217;28;41709;-77
2022/05/15 03:18:17;;;;;;;4.43;1.67;;;;;;;12.10;59.26;99190.84;5075255;28;41775;-85
2022/05/15 03:20:46;;;;;;;2.53;1.80;;;;;;;12.15;59.39;99199.34;5092402;28;43120;-83
2022/05/15 03:23:14;;;;;;;2.50;1.60;;;;;;;12.13;59.39;99211.88;5092123;28;39703;-76
2022/05/15 03:25:42;;;;;;;2.60;1.83;;;;;;;12.14;59.52;99200.31;5075181;28;40535;-80
2022/05/15 03:28:10;;;;;;;2.23;1.90;;;;;;;12.07;59.69;99183.94;5075141;28;42958;-83
2022/05/15 03:30:39;;;;;;;2.63;1.80;;;;;;;12.07;59.73;99193.69;5093825;28;42202;-79
2022/05/15 03:33:09;;;;;;;2.00;1.80;;;;;;;12.10;59.67;99209.44;5092501;28;39927;-76
2022/05/15 03:35:38;;;;;;;2.97;1.80;;;;;;;12.08;59.40;99198.91;5075941;28;40695;-82
2022/05/15 03:38:09;;;;;;;2.20;1.57;;;;;;;12.07;59.58;99201.66;5074734;28;42895;-82
2022/05/15 03:40:37;;;;;;;1.73;1.60;;;;;;;12.05;59.88;99198.22;5089810;28;42266;-77
2022/05/15 03:43:05;;;;;;;1.80;1.70;;;;;;;12.01;60.04;99200.22;5091850;28;39992;-84
2022/05/15 03:45:33;;;;;;;2.40;1.60;;;;;;;12.02;59.90;99201.06;5091405;28;40928;-83
2022/05/15 03:48:03;;;;;;;1.77;1.63;;;;;;;11.88;59.78;99178.91;5091027;28;42056;-83
2022/05/15 03:50:31;;;;;;;1.70;1.60;;;;;;;11.91;60.09;99177.00;5075014;28;41389;-84
2022/05/15 03:52:59;;;;;;;4.83;2.63;;;;;;;12.04;60.42;99192.06;5092260;28;39414;-81
2022/05/15 03:55:28;;;;;;;2.27;2.03;;;;;;;12.05;61.24;99190.28;5091459;28;40142;-81
2022/05/15 03:57:57;;;;;;;4.17;2.10;;;;;;;12.06;60.97;99199.94;5092446;28;42739;-83
2022/05/15 04:00:25;;;;;;;2.57;2.20;;;;;;;12.09;60.86;99205.06;5074922;28;41384;-77
2022/05/15 04:02:53;;;;;;;2.20;1.90;;;;;;;12.11;60.74;99211.13;5074724;28;38925;-81
2022/05/15 04:05:21;;;;;;;2.83;2.00;;;;;;;12.12;60.85;99211.00;5074657;28;40603;-83
2022/05/15 04:07:51;;;;;;;1.87;1.63;;;;;;;12.15;60.65;99209.97;5091202;28;42782;-75
2022/05/15 04:10:22;;;;;;;2.07;1.93;;;;;;;12.12;61.07;99191.56;5091361;28;42455;-77
2022/05/15 04:12:51;;;;;;;4.10;1.90;;;;;;;12.27;61.49;99211.84;5108299;28;40146;-85
2022/05/15 04:15:20;;;;;;;2.60;1.90;;;;;;;12.34;60.89;99213.19;5091645;28;41807;-82
2022/05/15 04:17:50;;;;;;;2.37;1.97;;;;;;;12.41;60.76;99219.78;5091213;28;42608;-79
2022/05/15 04:20:20;;;;;;;1.93;1.83;;;;;;;12.48;60.74;99221.13;5092044;28;42309;-78
2022/05/15 04:22:48;;;;;;;2.70;2.20;;;;;;;12.49;60.28;99217.47;5074390;28;40409;-80
2022/05/15 04:25:16;;;;;;;5.10;2.43;;;;;;;12.60;60.91;99219.47;5034145;28;41545;-81
2022/05/15 04:27:44;;;;;;;4.87;2.60;;;;;;;12.65;60.64;99221.81;5033929;28;41751;-84
2022/05/15 04:30:16;;;;;;;3.63;2.33;;;;;;;12.71;60.74;99216.97;5061675;28;42681;-77
2022/05/15 04:32:44;;;;;;;3.60;2.47;;;;;;;12.75;60.85;99212.28;5090871;28;39765;-85
2022/05/15 04:35:12;;;;;;;3.13;2.23;;;;;;;12.89;61.02;99220.19;5074427;28;42786;-78
2022/05/15 04:37:40;;;;;;;5.37;3.63;;;;;;;12.99;61.63;99210.66;5091048;28;43811;-86
2022/05/15 04:40:10;;;;;;;5.17;3.53;;;;;;;13.13;61.50;99223.88;5091099;28;41048;-82
2022/05/15 04:42:37;;;;;;;5.00;2.97;;;;;;;13.24;61.39;99221.38;5090193;28;39014;-85
2022/05/15 04:45:06;;;;;;;4.50;2.63;;;;;;;13.41;60.77;99227.38;5091270;28;41984;-81
2022/05/15 04:47:35;;;;;;;4.33;2.87;;;;;;;13.54;61.00;99228.25;5073551;28;43116;-83
2022/05/15 04:50:04;;;;;;;6.67;2.87;;;;;;;13.64;60.82;99224.00;5064404;28;42184;-79
2022/05/15 04:52:31;;;;;;;4.57;2.87;;;;;;;13.78;60.79;99234.53;5058058;28;39991;-82
2022/05/15 04:54:59;;;;;;;4.43;3.37;;;;;;;13.89;61.17;99239.97;5070369;28;40902;-78
2022/05/15 04:57:27;;;;;;;3.70;2.90;;;;;;;13.64;61.09;99176.09;5053738;28;42852;-82
2022/05/15 04:59:54;;;;;;;6.03;2.80;;;;;;;14.05;60.96;99228.25;5066636;28;44450;-81
2022/05/15 05:02:22;;;;;;;6.07;3.07;;;;;;;14.19;60.47;99241.44;5074087;28;39846;-83
2022/05/15 05:04:51;;;;;;;4.80;3.13;;;;;;;14.28;61.13;99243.44;5090633;28;40841;-81
2022/05/15 05:07:19;;;;;;;4.77;3.10;;;;;;;14.41;60.96;99236.31;5073744;28;41848;-79
2022/05/15 05:09:46;;;;;;;4.73;3.07;;;;;;;14.38;60.92;99226.66;5090529;28;42343;-79
2022/05/15 05:12:13;;;;;;;4.57;3.20;;;;;;;14.58;61.28;99241.28;5086362;28;39673;-81
2022/05/15 05:14:41;;;;;;;5.37;2.60;;;;;;;14.73;60.79;99239.28;5070014;28;41812;-84
2022/05/15 05:17:09;;;;;;;5.07;2.80;;;;;;;14.86;60.57;99242.75;5069630;28;41766;-76
2022/05/15 05:19:36;;;;;;;3.10;2.70;;;;;;;15.01;60.43;99256.75;5069216;28;42272;-83
2022/05/15 05:22:06;;;;;;;5.10;3.00;;;;;;;15.12;60.30;99251.47;5054382;28;39366;-77
2022/05/15 05:24:34;;;;;;;4.30;2.90;;;;;;;15.23;60.00;99256.84;5056352;28;40224;-85
2022/05/15 05:27:02;;;;;;;3.73;3.33;;;;;;;15.34;59.76;99253.38;5090261;28;42931;-78
2022/05/15 05:29:30;;;;;;;4.93;3.23;;;;;;;15.43;59.52;99258.91;5056840;28;42136;-75
2022/05/15 05:31:58;;;;;;;4.30;2.70;;;;;;;15.54;59.27;99249.22;5057024;28;39602;-81
2022/05/15 05:34:25;;;;;;;3.87;2.70;;;;;;;15.68;59.38;99259.72;5074632;28;41902;-77
2022/05/15 05:36:53;;;;;;;5.33;2.83;;;;;;;15.75;58.68;99248.44;5073231;28;43155;-84
2022/05/15 05:39:23;;;;;;;3.60;2.50;;;;;;;15.86;58.80;99238.72;5028409;28;42943;-77
2022/05/15 05:41:51;;;;;;;3.27;2.43;;;;;;;16.11;58.40;99260.72;5071992;28;40975;-77
2022/05/15 05:44:18;;;;;;;3.87;2.77;;;;;;;16.27;58.17;99259.53;5055760;28;42100;-80
2022/05/15 05:46:46;;;;;;;3.50;2.50;;;;;;;16.20;57.35;99228.91;5072623;28;42687;-79
2022/05/15 05:49:14;;;;;;;3.70;2.87;;;;;;;16.47;57.56;99258.78;5072918;28;41703;-82
2022/05/15 05:51:42;;;;;;;3.57;2.73;;;;;;;16.62;57.33;99264.72;5072589;28;40897;-77
2022/05/15 05:54:09;;;;;;;3.27;2.83;;;;;;;16.77;57.40;99261.69;5072909;28;41659;-80
2022/05/15 05:56:38;;;;;;;3.40;3.10;;;;;;;16.88;57.06;99263.47;5071819;28;42613;-80
2022/05/15 05:59:06;;;;;;;6.10;2.70;;;;;;;16.98;56.34;99269.78;5072874;28;41932;-79
2022/05/15 06:01:33;;;;;;;5.60;3.60;;;;;;;17.11;56.42;99266.94;5069677;28;40510;-81
2022/05/15 06:06:46;;;;;;;6.57;2.77;;;;;;;17.34;56.28;99249.81;5066914;28;43440;-84
2022/05/15 06:09:13;;;;;;;2.90;2.70;;;;;;;17.47;55.90;99258.50;5050933;28;41043;-82
2022/05/15 06:11:42;;;;;;;7.13;2.93;;;;;;;17.69;55.88;99267.41;5052461;28;38573;-81
2022/05/15 06:14:10;;;;;;;5.30;2.80;;;;;;;17.80;54.94;99276.25;5047416;28;41205;-80
2022/05/15 06:16:38;;;;;;;3.63;2.90;;;;;;;17.93;54.27;99284.06;5085790;28;42684;-81
2022/05/15 06:19:06;;;;;;;4.00;3.00;;;;;;;18.13;53.89;99288.59;5087068;28;42459;-84
2022/05/15 06:21:33;;;;;;;7.27;2.77;;;;;;;18.32;53.35;99271.72;5055494;28;39017;-79
2022/05/15 06:24:01;;;;;;;5.13;3.13;;;;;;;18.66;53.16;99291.13;5072350;28;42357;-83
2022/05/15 06:26:29;;;;;;;6.17;3.00;;;;;;;18.79;52.87;99291.69;5055404;28;42092;-82
2022/05/15 06:28:58;;;;;;;3.10;2.60;;;;;;;18.88;53.58;99284.66;5050962;28;41834;-81
2022/05/15 06:31:26;;;;;;;4.17;2.60;;;;;;;18.97;52.75;99289.19;5079130;28;40764;-77
2022/05/15 06:33:53;;;;;;;3.33;2.43;;;;;;;19.07;52.42;99295.44;5070237;28;41061;-76
2022/05/15 06:36:21;;;;;;;3.10;2.30;;;;;;;19.23;52.63;99294.91;5072931;28;42662;-82
2022/05/15 06:38:49;;;;;;;4.03;3.13;;;;;;;19.40;52.02;99290.69;5072204;28;43217;-81
2022/05/15 06:41:17;;;;;;;3.87;2.60;;;;;;;19.61;50.37;99299.47;5054750;28;39282;-85
2022/05/15 06:43:44;;;;;;;6.83;2.73;;;;;;;19.87;49.13;99305.94;5071780;28;41844;-83
2022/05/15 06:46:14;;;;;;;6.07;2.73;;;;;;;20.32;49.26;99305.25;5071805;28;42913;-84
2022/05/15 06:48:41;;;;;;;4.13;2.57;;;;;;;20.85;47.47;99315.41;5051706;28;41380;-79
2022/05/15 06:51:09;;;;;;;5.13;2.40;;;;;;;21.10;47.98;99315.56;5072912;28;41138;-79
2022/05/15 06:53:37;;;;;;;4.13;2.90;;;;;;;21.20;47.33;99306.59;5070204;28;41833;-83
2022/05/15 06:58:50;;;;;;;5.73;2.30;;;;;;;21.52;46.93;99317.69;5063940;28;43119;-77
2022/05/15 07:01:19;;;;;;;8.30;3.60;;;;;;;21.82;47.10;99303.81;5053998;28;39358;-77
2022/05/15 07:03:47;;;;;;;2.20;1.97;;;;;;;22.03;46.35;99316.13;5051090;28;40496;-80
2022/05/15 07:06:15;;;;;;;5.03;2.60;;;;;;;22.25;45.76;99304.00;5058776;28;42915;-81
2022/05/15 07:08:43;;;;;;;3.63;2.30;;;;;;;22.47;45.68;99320.47;5054708;28;40685;-84
2022/05/15 07:11:12;;;;;;;5.17;3.03;;;;;;;22.67;43.99;99326.47;5071537;28;39418;-79
2022/05/15 07:13:40;;;;;;;2.97;2.37;;;;;;;23.17;43.83;99331.94;5071759;28;42556;-80
2022/05/15 07:16:08;;;;;;;4.80;2.60;;;;;;;23.78;42.25;99330.72;5069548;28;42543;-83
2022/05/15 07:18:37;;;;;;;3.17;2.37;;;;;;;24.28;41.79;99337.84;5052978;28;44016;-83
2022/05/15 07:21:05;;;;;;;3.17;2.23;;;;;;;24.36;42.04;99332.41;5055078;28;40230;-81
2022/05/15 07:23:33;;;;;;;3.70;2.40;;;;;;;24.55;41.14;99336.59;5052685;28;41714;-86
2022/05/15 07:26:02;;;;;;;5.13;2.13;;;;;;;25.05;40.21;99344.41;5052369;28;42745;-83
2022/05/15 07:28:30;;;;;;;3.80;2.20;;;;;;;25.45;38.17;99351.50;5034374;28;42744;-79
2022/05/15 07:30:58;;;;;;;2.40;1.97;;;;;;;25.70;37.72;99354.94;5033921;28;38860;-78
2022/05/15 07:33:27;;;;;;;4.97;2.27;;;;;;;25.73;37.54;99359.97;5057045;28;41510;-74
2022/05/15 07:35:57;;;;;;;2.77;2.47;;;;;;;25.58;37.84;99345.50;5065562;28;43073;-74
2022/05/15 07:38:25;;;;;;;3.67;2.10;;;;;;;25.61;37.40;99345.13;5078972;28;43084;-76
2022/05/15 07:40:53;;;;;;;3.77;2.40;;;;;;;25.53;37.27;99343.31;5085811;28;40623;-76
2022/05/15 07:43:21;;;;;;;5.70;2.07;;;;;;;25.58;38.75;99324.63;5084785;28;42338;-75
2022/05/15 07:45:48;;;;;;;4.23;2.20;;;;;;;26.06;37.90;99328.84;5084763;28;42855;-76
2022/05/15 07:48:16;;;;;;;3.53;2.17;;;;;;;26.71;37.77;99333.63;5042802;28;40550;-83
2022/05/15 07:50:44;;;;;;;2.73;2.17;;;;;;;27.09;37.04;99333.53;5052624;28;40905;-79
2022/05/15 07:53:12;;;;;;;4.00;2.30;;;;;;;27.39;37.07;99332.47;5072079;28;42737;-77
2022/05/15 07:55:40;;;;;;;4.77;2.03;;;;;;;27.46;36.79;99336.06;5076325;28;43731;-75
2022/05/15 07:58:08;;;;;;;2.13;1.80;;;;;;;27.57;36.28;99336.66;5075466;28;42521;-81
2022/05/15 08:00:36;;;;;;;3.20;2.00;;;;;;;27.66;35.23;99344.50;5046421;28;39722;-78
2022/05/15 08:03:07;;;;;;;3.93;2.10;;;;;;;27.94;35.85;99335.56;5049527;28;40853;-84
2022/05/15 08:08:23;;;;;;;3.43;2.33;;;;;;;28.55;33.90;99344.91;5050316;28;42484;-77
2022/05/15 08:10:51;;;;;;;2.80;2.20;;;;;;;28.41;33.51;99349.41;5070522;28;39145;-80
2022/05/15 08:13:21;;;;;;;2.40;1.90;;;;;;;28.38;34.15;99335.31;5070274;28;41080;-77
2022/05/15 08:15:50;;;;;;;4.57;1.93;;;;;;;28.49;32.01;99353.84;5070568;28;42825;-80
2022/05/15 08:23:52;;;;;;;4.23;2.17;;;;;;;30.16;30.99;99349.75;5050053;28;42545;-79
2022/05/15 08:26:20;;;;;;;3.63;2.50;;;;;;;30.74;30.33;99358.13;5064227;28;42662;-82
2022/05/15 08:28:48;;;;;;;3.97;1.97;;;;;;;30.90;29.16;99369.47;5061344;28;43207;-83
2022/05/15 08:31:17;;;;;;;2.53;1.97;;;;;;;31.19;28.62;99370.88;5053338;28;39835;-83
2022/05/15 08:33:45;;;;;;;4.30;2.10;;;;;;;31.69;27.80;99377.41;5070434;28;41713;-77
2022/05/15 08:36:14;;;;;;;6.97;2.33;;;;;;;32.64;27.90;99364.47;5070272;28;41764;-84
2022/05/15 08:38:43;;;;;;;5.17;2.50;;;;;;;33.86;26.26;99371.72;5063182;28;41814;-84
2022/05/15 08:41:18;;;;;;;3.83;2.60;;;;;;;35.21;25.35;99379.16;5051338;28;40073;-78
2022/05/15 08:43:49;;;;;;;4.07;2.30;;;;;;;36.45;23.90;99377.47;5049588;28;40798;-79
2022/05/15 08:46:37;;;;;;;2.40;2.03;;;;;;;37.21;22.75;99389.69;5050333;28;41646;-79
2022/05/15 08:49:10;;;;;;;2.77;2.10;;;;;;;37.29;22.53;99380.94;5082838;28;41452;-80
2022/05/15 08:51:39;;;;;;;2.77;2.17;;;;;;;36.90;22.93;99376.50;5047276;28;40909;-80
2022/05/15 08:54:08;;;;;;;2.80;2.07;;;;;;;36.27;24.37;99370.25;5049681;28;42800;-82
2022/05/15 08:56:46;;;;;;;3.60;2.53;;;;;;;35.99;23.17;99393.16;5032875;28;43014;-80
2022/05/15 08:59:23;;;;;;;2.43;2.00;;;;;;;35.46;24.11;99373.38;5050181;28;42901;-83
2022/05/15 09:01:53;;;;;;;3.80;2.20;;;;;;;34.82;25.46;99350.50;5048287;28;40701;-82
2022/05/15 09:04:22;;;;;;;3.00;2.00;;;;;;;34.50;26.59;99349.97;5051220;28;41549;-84
2022/05/15 09:07:05;;;;;;;4.80;2.00;;;;;;;34.30;26.52;99330.25;5037772;28;42415;-77
2022/05/15 09:09:44;;;;;;;3.83;2.20;;;;;;;34.22;26.90;99342.41;5050637;28;43424;-86
2022/05/15 09:12:17;;;;;;;2.10;1.90;;;;;;;33.95;26.43;99333.75;5047972;28;39730;-80
2022/05/15 09:14:58;;;;;;;3.67;2.07;;;;;;;33.81;26.46;99355.09;5049529;28;40855;-83
2022/05/15 09:17:36;;;;;;;2.80;2.10;;;;;;;33.53;25.83;99361.16;5046032;28;42845;-81
2022/05/15 09:20:08;;;;;;;3.87;2.30;;;;;;;33.03;25.84;99355.00;5046425;28;42368;-79
2022/05/15 09:22:39;;;;;;;3.53;2.40;;;;;;;33.03;28.23;99335.78;5047956;28;41936;-82
2022/05/15 09:25:15;;;;;;;2.33;1.87;;;;;;;32.92;28.82;99327.47;5079871;28;41951;-78
2022/05/15 09:27:59;;;;;;;3.93;2.07;;;;;;;32.81;26.86;99340.06;5052757;28;43197;-78
2022/05/15 09:30:34;;;;;;;4.30;2.30;;;;;;;32.67;26.86;99333.00;5067609;28;42011;-80
2022/05/15 09:33:02;;;;;;;2.43;1.83;;;;;;;32.89;26.96;99337.00;5069545;28;39025;-83
2022/05/15 09:35:35;;;;;;;2.83;1.87;;;;;;;33.30;25.45;99354.72;5070793;28;41811;-83
2022/05/15 09:43:50;;;;;;;3.87;2.00;;;;;;;33.98;24.48;99335.19;5050058;28;40276;-82
2022/05/15 09:46:23;;;;;;;2.93;1.83;;;;;;;34.11;25.04;99345.97;5047723;28;42507;-82
2022/05/15 09:48:54;;;;;;;2.43;2.23;;;;;;;34.07;24.96;99350.25;5032304;28;41645;-79
2022/05/15 09:51:29;;;;;;;2.93;2.03;;;;;;;34.26;24.67;99349.13;5050055;28;41185;-78
2022/05/15 09:53:59;;;;;;;4.60;2.13;;;;;;;34.23;25.24;99344.09;5066467;28;39094;-79
2022/05/15 09:56:31;;;;;;;3.27;1.90;;;;;;;34.22;24.20;99339.66;5083043;28;41933;-83
2022/05/15 09:59:09;;;;;;;3.70;2.50;;;;;;;34.21;24.16;99340.72;5049661;28;43750;-82
2022/05/15 10:01:40;;;;;;;2.80;2.10;;;;;;;34.61;24.81;99324.41;5049330;28;40644;-81
2022/05/15 10:04:09;;;;;;;3.50;1.60;;;;;;;35.16;23.46;99340.47;5049584;28;40436;-80
2022/05/15 10:06:52;;;;;;;3.20;1.90;;;;;;;35.51;22.57;99338.47;5049304;28;41827;-80
2022/05/15 10:09:30;;;;;;;3.63;2.03;;;;;;;36.40;23.40;99333.22;5068035;28;43689;-80
2022/05/15 10:12:03;;;;;;;2.17;1.87;;;;;;;37.71;21.19;99350.75;5051245;28;43319;-86
2022/05/15 10:14:38;;;;;;;2.30;2.10;;;;;;;38.10;19.85;99348.69;5036519;28;40922;-84
2022/05/15 10:17:07;;;;;;;2.90;1.77;;;;;;;38.52;18.74;99361.78;5083598;28;42453;-82
2022/05/15 10:19:41;;;;;;;1.92;1.70;;;;;;;38.60;19.59;99353.00;5035592;28;41860;-82
2022/05/15 10:22:21;;;;;;;1.67;1.58;;;;;;;38.50;19.67;99330.75;5052340;28;41270;-82
2022/05/15 10:24:51;;;;;;;2.22;1.60;;;;;;;38.34;20.44;99340.84;5052888;28;39293;-84
2022/05/15 10:27:24;;;;;;;1.65;1.48;;;;;;;38.12;20.02;99336.53;5072297;28;41562;-81
2022/05/15 10:30:00;;;;;;;3.55;1.73;;;;;;;37.81;20.05;99327.09;5069576;28;42788;-79
2022/05/15 10:32:38;;;;;;;2.00;1.63;;;;;;;37.38;19.44;99342.63;5072441;28;41294;-79
2022/05/15 10:35:08;;;;;;;2.15;1.95;;;;;;;37.07;20.08;99327.59;5075682;28;39071;-84
2022/05/15 10:38:03;;;;;;;2.67;1.73;;;;;;;38.00;20.55;99304.31;5068990;28;42754;-79
2022/05/15 10:40:37;;;;;;;1.60;1.50;;;;;;;38.82;18.84;99327.13;5067807;28;43618;-82
2022/05/15 10:43:27;;;;;;;2.30;1.90;;;;;;;38.82;19.16;99318.81;5051012;28;42387;-87
2022/05/15 10:46:03;;;;;;;1.98;1.75;;;;;;;38.53;19.33;99310.88;5050027;28;40348;-82
2022/05/15 10:48:47;;;;;;;1.98;1.70;;;;;;;38.09;19.19;99313.81;5051621;28;43021;-81
2022/05/15 10:51:22;;;;;;;2.67;1.88;;;;;;;37.82;19.68;99318.56;5050370;28;43586;-82
2022/05/15 10:57:29;;;;;;;1.88;1.70;;;;;;;38.09;19.83;99301.91;5051972;28;39258;-77
2022/05/15 11:00:03;;;;;;;2.38;1.58;;;;;;;37.78;20.18;99289.75;5051662;28;41092;-80
2022/05/15 11:02:56;;;;;;;3.20;1.73;;;;;;;37.35;21.31;99274.91;5050069;28;42610;-84
2022/05/15 11:05:28;;;;;;;1.60;1.50;;;;;;;37.13;21.44;99276.00;5065647;28;42084;-81
2022/05/15 11:08:06;;;;;;;2.00;1.80;;;;;;;36.87;23.27;99266.56;5068539;28;41055;-85
2022/05/15 11:10:40;;;;;;;2.10;1.90;;;;;;;36.98;21.54;99282.16;5050089;28;42769;-85
2022/05/15 11:13:12;;;;;;;3.13;1.80;;;;;;;36.94;21.38;99278.25;5050640;28;42687;-82
2022/05/15 11:15:51;;;;;;;2.70;2.10;;;;;;;36.88;19.54;99284.78;5065315;28;41818;-86
2022/05/15 11:18:35;;;;;;;1.93;1.83;;;;;;;36.84;20.60;99278.97;5051504;28;38541;-83
2022/05/15 11:21:09;;;;;;;3.50;2.07;;;;;;;36.65;22.08;99258.25;5051482;28;40552;-81
2022/05/15 11:23:43;;;;;;;1.60;1.50;;;;;;;36.39;21.71;99237.72;5051369;28;43456;-80
2022/05/15 11:26:17;;;;;;;3.00;1.97;;;;;;;36.38;21.66;99240.75;5051037;28;41226;-88
2022/05/15 11:28:48;;;;;;;1.77;1.50;;;;;;;36.44;20.40;99261.81;5067215;28;39937;-84
2022/05/15 11:31:21;;;;;;;2.27;1.70;;;;;;;36.48;20.64;99258.28;5049568;28;42053;-81
2022/05/15 11:33:53;;;;;;;3.30;1.87;;;;;;;36.83;21.51;99238.66;5082511;28;41781;-86
2022/05/15 11:36:38;;;;;;;1.80;1.70;;;;;;;37.40;22.50;99229.91;5068313;28;42316;-83
2022/05/15 11:39:22;;;;;;;2.03;1.60;;;;;;;37.65;20.78;99260.59;5071698;28;40879;-79
2022/05/15 11:42:14;;;;;;;2.47;1.90;;;;;;;37.97;21.08;99248.69;5068225;28;42545;-78
2022/05/15 11:44:44;;;;;;;1.90;1.50;;;;;;;38.62;20.92;99245.59;5071437;28;43510;-79
2022/05/15 11:47:39;;;;;;;2.90;1.83;;;;;;;39.91;19.51;99246.56;5071320;28;42115;-77
2022/05/15 11:50:15;;;;;;;2.80;1.60;;;;;;;41.05;18.25;99255.22;5019711;28;40226;-81
2022/05/15 11:53:04;;;;;;;2.20;1.43;;;;;;;42.00;18.96;99236.25;5069492;28;42131;-81
2022/05/15 11:55:44;;;;;;;2.05;1.70;;;;;;;42.44;15.09;99271.47;5068461;28;43709;-82
2022/05/15 11:58:32;;;;;;;2.33;1.52;;;;;;;42.80;15.21;99264.41;5069834;28;41701;-82
2022/05/15 12:01:19;;;;;;;2.13;1.50;;;;;;;43.41;15.13;99258.03;5070712;28;40872;-81
2022/05/15 12:03:53;;;;;;;1.92;1.70;;;;;;;44.54;14.32;99263.44;5070937;28;42488;-81
2022/05/15 12:06:25;;;;;;;3.15;1.70;;;;;;;45.39;13.90;99257.19;5068018;28;42931;-83
2022/05/15 12:09:26;;;;;;;1.83;1.58;;;;;;;46.03;12.48;99264.34;5070128;28;42530;-80
2022/05/15 12:11:57;;;;;;;1.92;1.77;;;;;;;46.71;12.63;99259.50;5071105;28;39959;-81
2022/05/15 12:14:34;;;;;;;1.90;1.58;;;;;;;46.69;11.43;99250.59;5054334;28;40663;-83